Time;durP1;ratioP1;P1;durP2;ratioP2;P2;SDS_P1;SDS_P2;PMS_P1;PMS_P2;Temp;Humidity;BMP_temperature;BMP_pressure;BME280_temperature;BME280_humidity;BME280_pressure;Samples;Min_cycle;Max_cycle;Signal;HPM_P1;HPM_P2
2021/06/07 01:54:15;;;;;;;;;;;;;;;;;;;;;
2021/06/07 01:57:13;;;;;;;47.17;30.93;;;15.70;99.90;;;;;;4824678;29;20809;-85
2021/06/07 02:22:04;;;;;;;;;;;;;;;;;;;;;
2021/06/07 02:28:59;;;;;;;52.10;31.57;;;15.70;99.90;;;;;;4738236;30;21063;-86
2021/06/07 02:42:26;;;;;;;41.20;29.33;;;15.60;99.90;;;;;;4751763;30;20510;-85
2021/06/07 02:45:32;;;;;;;41.50;32.07;;;15.50;99.90;;;;;;4827976;29;20470;-86
2021/06/07 02:48:45;;;;;;;;;;;;;;;;;;;;;
2021/06/07 02:55:14;;;;;;;41.43;31.93;;;15.50;99.90;;;;;;4826460;29;20474;-86
2021/06/07 02:58:14;;;;;;;48.23;30.60;;;15.50;99.90;;;;;;4826579;29;20890;-86
2021/06/07 03:32:38;;;;;;;53.57;34.50;;;15.50;99.90;;;;;;4731144;30;20568;-85
2021/06/07 03:35:46;;;;;;;;;;;;;;;;;;;;;
2021/06/07 03:55:02;;;;;;;55.53;38.47;;;15.50;99.90;;;;;;4630542;30;20472;-84
2021/06/07 03:57:58;;;;;;;55.23;34.60;;;15.40;99.90;;;;;;4793746;29;20675;-83
2021/06/07 06:05:42;;;;;;;43.50;24.37;;;15.70;99.90;;;;;;4774778;30;20473;-84
2021/06/07 06:59:26;;;;;;;26.53;20.43;;;16.20;99.90;;;;;;4798632;29;20448;-85
2021/06/07 07:01:54;;;;;;;26.80;19.50;;;16.20;99.90;;;;;;4871260;29;20471;-84
2021/06/07 07:20:45;;;;;;;29.10;20.27;;;16.20;99.90;;;;;;4749994;30;20463;-84
2021/06/07 07:27:12;;;;;;;;;;;;;;;;;;;;;
2021/06/07 07:33:37;;;;;;;28.23;20.13;;;16.50;99.90;;;;;;4732210;29;20466;-87
2021/06/07 07:40:02;;;;;;;20.47;17.00;;;16.60;99.90;;;;;;4865490;29;20527;-85
2021/06/07 07:49:19;;;;;;;17.97;15.60;;;16.60;99.90;;;;;;4719583;30;20539;-85
2021/06/07 07:52:22;;;;;;;17.60;13.87;;;16.70;99.90;;;;;;4790571;29;20456;-86
2021/06/07 07:58:30;;;;;;;16.60;13.90;;;16.70;99.90;;;;;;4815381;29;20464;-86
2021/06/07 09:20:50;;;;;;;9.07;8.27;;;17.80;99.90;;;;;;4681252;30;20866;-84
2021/06/07 09:23:45;;;;;;;12.33;11.10;;;17.80;99.90;;;;;;4733652;30;20511;-85
2021/06/07 09:55:42;;;;;;;15.67;13.70;;;18.30;99.90;;;;;;4682410;30;21229;-84
2021/06/07 09:58:10;;;;;;;18.13;14.67;;;18.20;99.90;;;;;;4803182;29;20462;-83
2021/06/07 10:14:25;;;;;;;19.20;13.87;;;18.30;99.90;;;;;;4672614;30;20527;-83
2021/06/07 10:16:56;;;;;;;18.30;14.07;;;18.20;99.90;;;;;;4733396;29;20538;-85
2021/06/07 10:19:34;;;;;;;17.63;15.20;;;18.20;99.90;;;;;;4817892;29;20459;-82
2021/06/07 10:22:05;;;;;;;15.73;14.10;;;18.20;99.90;;;;;;4846334;29;20836;-82
2021/06/07 10:24:31;;;;;;;16.90;15.30;;;18.20;99.90;;;;;;4846434;29;20512;-83
2021/06/07 10:26:57;;;;;;;15.80;14.10;;;18.30;99.90;;;;;;4846126;29;20468;-83
2021/06/07 10:29:32;;;;;;;18.80;15.17;;;18.30;99.90;;;;;;4846442;29;20605;-81
2021/06/07 10:32:05;;;;;;;16.37;14.70;;;18.30;99.90;;;;;;4846088;29;20599;-83
2021/06/07 10:34:45;;;;;;;16.07;14.43;;;18.30;99.90;;;;;;4845765;29;20559;-83
2021/06/07 10:37:12;;;;;;;16.50;14.83;;;18.40;99.90;;;;;;4845972;29;20474;-83
2021/06/07 10:39:38;;;;;;;18.10;16.13;;;18.50;99.90;;;;;;4845732;29;20463;-83
2021/06/07 10:42:28;;;;;;;18.37;16.53;;;18.50;99.90;;;;;;4845609;29;20466;-83
2021/06/07 10:44:59;;;;;;;23.17;17.77;;;18.40;99.90;;;;;;4845634;29;20581;-82
2021/06/07 10:47:27;;;;;;;20.10;17.23;;;18.50;99.90;;;;;;4845937;29;20836;-83
2021/06/07 10:50:03;;;;;;;18.50;16.70;;;18.60;99.90;;;;;;4845365;29;20478;-81
2021/06/07 10:52:41;;;;;;;19.23;17.27;;;18.60;99.90;;;;;;4845547;29;20447;-80
2021/06/07 10:55:10;;;;;;;19.90;17.77;;;18.70;99.90;;;;;;4845432;29;20572;-81
2021/06/07 10:57:39;;;;;;;21.03;18.50;;;18.80;99.90;;;;;;4845499;29;20459;-81
2021/06/07 11:00:13;;;;;;;20.57;16.03;;;18.80;99.90;;;;;;4845600;29;20463;-81
2021/06/07 11:02:42;;;;;;;22.53;20.37;;;18.80;99.90;;;;;;4845259;29;20468;-81
2021/06/07 11:05:12;;;;;;;20.40;18.40;;;18.90;99.90;;;;;;4845116;29;20535;-81
2021/06/07 11:07:42;;;;;;;21.83;18.30;;;18.90;99.90;;;;;;4845023;29;20919;-79
2021/06/07 11:10:22;;;;;;;19.27;17.30;;;18.90;99.90;;;;;;4845357;29;20471;-81
2021/06/07 11:12:51;;;;;;;21.70;18.77;;;18.90;99.90;;;;;;4844714;29;20467;-81
2021/06/07 11:15:21;;;;;;;18.73;16.83;;;18.80;99.90;;;;;;4845011;29;20474;-81
2021/06/07 11:17:49;;;;;;;17.87;15.87;;;18.80;99.90;;;;;;4845279;29;20466;-81
2021/06/07 11:20:31;;;;;;;18.13;16.20;;;18.80;99.90;;;;;;4845180;29;20472;-80
2021/06/07 11:23:13;;;;;;;18.70;16.90;;;18.80;99.90;;;;;;4844936;29;20459;-80
2021/06/07 11:25:53;;;;;;;19.10;17.10;;;18.90;99.90;;;;;;4845154;29;20486;-79
2021/06/07 11:28:41;;;;;;;18.33;16.43;;;18.80;99.90;;;;;;4844743;29;20460;-79
2021/06/07 11:31:43;;;;;;;18.33;16.43;;;18.80;99.90;;;;;;4844560;29;20835;-80
2021/06/07 11:34:11;;;;;;;18.20;16.53;;;18.80;99.90;;;;;;4788312;30;20589;-81
2021/06/07 11:36:39;;;;;;;18.00;16.03;;;18.90;99.90;;;;;;4788004;29;20477;-81
2021/06/07 11:39:07;;;;;;;18.90;16.13;;;18.90;99.90;;;;;;4814956;29;20513;-83
2021/06/07 11:41:43;;;;;;;18.10;16.30;;;19.00;99.90;;;;;;4844019;29;20462;-80
2021/06/07 11:44:10;;;;;;;18.70;16.73;;;19.00;99.90;;;;;;4843400;29;20495;-80
2021/06/07 11:46:57;;;;;;;17.80;16.10;;;19.10;99.90;;;;;;4843127;29;20993;-80
2021/06/07 11:49:23;;;;;;;16.43;14.73;;;19.20;99.90;;;;;;4843542;29;20940;-81
2021/06/07 11:52:05;;;;;;;16.43;14.50;;;19.20;99.90;;;;;;4844744;29;20468;-81
2021/06/07 11:54:48;;;;;;;16.00;14.50;;;19.30;99.90;;;;;;4844547;29;20475;-81
2021/06/07 11:57:15;;;;;;;17.83;15.93;;;19.40;99.90;;;;;;4844098;29;20498;-80
2021/06/07 11:59:42;;;;;;;16.87;15.13;;;19.40;99.90;;;;;;4844465;29;20467;-80
2021/06/07 12:02:14;;;;;;;17.73;15.83;;;19.40;99.90;;;;;;4844040;29;20904;-81
2021/06/07 12:04:42;;;;;;;16.43;14.73;;;19.40;99.90;;;;;;4844124;29;20500;-79
2021/06/07 12:07:10;;;;;;;16.13;14.43;;;19.50;99.90;;;;;;4844419;29;20503;-80
2021/06/07 12:09:38;;;;;;;14.67;13.17;;;19.50;99.90;;;;;;4844108;29;20472;-80
2021/06/07 12:12:06;;;;;;;15.40;13.93;;;19.60;99.90;;;;;;4843748;29;20513;-81
2021/06/07 12:14:36;;;;;;;15.57;13.97;;;19.70;99.90;;;;;;4844043;29;20481;-80
2021/06/07 12:17:04;;;;;;;15.87;14.27;;;19.70;99.90;;;;;;4843781;29;20821;-79
2021/06/07 12:19:33;;;;;;;17.30;15.70;;;19.80;99.90;;;;;;4843960;29;20983;-79
2021/06/07 12:22:00;;;;;;;14.70;13.10;;;19.90;99.90;;;;;;4843430;29;20472;-80
2021/06/07 12:24:27;;;;;;;17.70;15.90;;;19.90;99.90;;;;;;4843815;29;20512;-79
2021/06/07 12:29:39;;;;;;;15.93;14.23;;;19.90;99.90;;;;;;4843847;29;20471;-80
2021/06/07 12:32:11;;;;;;;15.90;14.20;;;19.90;99.90;;;;;;4843967;29;20464;-80
2021/06/07 12:35:07;;;;;;;17.07;15.40;;;19.90;99.90;;;;;;4843444;29;20493;-80
2021/06/07 12:37:35;;;;;;;16.93;15.20;;;19.80;99.90;;;;;;4843870;29;20573;-80
2021/06/07 12:40:20;;;;;;;16.30;14.60;;;19.80;99.90;;;;;;4843490;29;20479;-80
2021/06/07 12:42:49;;;;;;;18.67;16.73;;;19.70;99.90;;;;;;4843430;29;20469;-80
2021/06/07 12:45:18;;;;;;;17.80;16.10;;;19.70;99.90;;;;;;4843425;29;20529;-80
2021/06/07 12:47:45;;;;;;;17.70;16.10;;;19.60;99.90;;;;;;4843651;29;20451;-80
2021/06/07 12:50:17;;;;;;;18.77;16.30;;;19.60;99.90;;;;;;4843314;29;20481;-80
2021/06/07 12:52:47;;;;;;;19.77;16.60;;;19.60;99.90;;;;;;4843061;29;20468;-79
2021/06/07 12:55:16;;;;;;;18.63;16.80;;;19.60;99.90;;;;;;4843418;29;20567;-80
2021/06/07 12:57:43;;;;;;;20.43;18.23;;;19.80;99.90;;;;;;4843492;29;20463;-80
2021/06/07 13:00:31;;;;;;;19.40;16.10;;;19.80;99.90;;;;;;4843301;29;20465;-79
2021/06/07 13:02:58;;;;;;;18.20;16.47;;;19.90;99.90;;;;;;4843219;29;20453;-79
2021/06/07 13:05:28;;;;;;;18.60;16.70;;;20.00;99.90;;;;;;4843243;29;20507;-80
2021/06/07 13:08:13;;;;;;;16.60;14.87;;;20.00;99.90;;;;;;4843694;29;20518;-80
2021/06/07 13:10:43;;;;;;;16.37;14.67;;;20.20;99.90;;;;;;4843309;29;20454;-80
2021/06/07 13:13:21;;;;;;;19.20;17.17;;;20.30;99.90;;;;;;4842869;29;20472;-80
2021/06/07 13:16:01;;;;;;;16.10;14.50;;;20.30;99.90;;;;;;4843011;29;20918;-80
2021/06/07 13:18:27;;;;;;;16.97;15.27;;;20.20;99.90;;;;;;4842924;29;20463;-80
2021/06/07 13:21:07;;;;;;;15.30;13.83;;;20.00;99.90;;;;;;4842971;29;20464;-80
2021/06/07 13:23:38;;;;;;;17.67;15.87;;;19.80;99.90;;;;;;4842931;29;20495;-79
2021/06/07 13:26:19;;;;;;;17.33;15.63;;;19.70;99.90;;;;;;4843126;29;20485;-79
2021/06/07 13:28:45;;;;;;;18.57;16.33;;;19.50;99.90;;;;;;4843589;29;20464;-80
2021/06/07 13:31:12;;;;;;;19.23;17.23;;;19.40;99.90;;;;;;4842832;29;20461;-79
2021/06/07 13:33:40;;;;;;;19.40;16.17;;;19.40;99.90;;;;;;4842657;29;20951;-80
2021/06/07 13:36:09;;;;;;;19.50;17.40;;;19.40;99.90;;;;;;4842916;29;20523;-80
2021/06/07 13:38:37;;;;;;;17.67;15.97;;;19.40;99.90;;;;;;4843492;29;20461;-80
2021/06/07 13:41:11;;;;;;;17.37;15.57;;;19.40;99.90;;;;;;4842981;29;20536;-80
2021/06/07 13:43:37;;;;;;;18.93;17.03;;;19.50;99.90;;;;;;4842538;29;20498;-79
2021/06/07 13:46:04;;;;;;;18.43;16.53;;;19.50;99.90;;;;;;4842947;29;20491;-80
2021/06/07 13:48:36;;;;;;;19.13;17.30;;;19.50;99.90;;;;;;4842595;29;20533;-80
2021/06/07 13:51:03;;;;;;;18.43;16.53;;;19.60;99.90;;;;;;4842680;29;20551;-80
2021/06/07 13:53:35;;;;;;;22.20;19.40;;;19.70;99.90;;;;;;4844202;29;20462;-80
2021/06/07 13:56:04;;;;;;;18.47;16.20;;;19.70;99.90;;;;;;4846326;29;20532;-79
2021/06/07 13:58:40;;;;;;;17.53;15.73;;;20.00;99.90;;;;;;4845567;29;20958;-79
2021/06/07 14:01:07;;;;;;;18.37;16.67;;;20.30;99.90;;;;;;4846485;29;20460;-80
2021/06/07 14:03:35;;;;;;;17.40;15.60;;;20.60;99.90;;;;;;4846064;29;20490;-80
2021/06/07 14:06:03;;;;;;;18.17;16.43;;;20.90;99.90;;;;;;4846103;29;20473;-80
2021/06/07 14:08:32;;;;;;;18.17;16.30;;;21.20;99.90;;;;;;4846496;29;20478;-80
2021/06/07 14:11:02;;;;;;;15.53;13.90;;;21.60;99.90;;;;;;4845832;29;20458;-80
2021/06/07 14:13:29;;;;;;;17.20;15.60;;;21.90;99.90;;;;;;4846105;29;20950;-82
2021/06/07 14:15:56;;;;;;;15.83;14.27;;;22.00;99.90;;;;;;4846053;29;20479;-80
2021/06/07 14:18:22;;;;;;;17.10;15.40;;;22.00;99.90;;;;;;4846286;29;20470;-80
2021/06/07 14:20:49;;;;;;;16.03;14.33;;;21.90;99.90;;;;;;4845848;29;20465;-79
2021/06/07 14:26:06;;;;;;;16.90;15.20;;;21.80;99.90;;;;;;4845868;29;20530;-80
2021/06/07 14:28:33;;;;;;;18.03;16.33;;;21.70;99.90;;;;;;4846053;29;20460;-81
2021/06/07 14:30:59;;;;;;;18.63;16.73;;;21.60;99.90;;;;;;4845820;29;20485;-79
2021/06/07 14:33:26;;;;;;;17.90;16.10;;;21.50;99.90;;;;;;4845770;29;20462;-79
2021/06/07 14:35:52;;;;;;;17.37;15.77;;;21.40;99.90;;;;;;4845349;29;20509;-80
2021/06/07 14:38:18;;;;;;;17.57;15.67;;;21.30;99.90;;;;;;4846073;29;20569;-80
2021/06/07 14:40:45;;;;;;;18.70;16.30;;;21.10;99.90;;;;;;4845783;29;20497;-80
2021/06/07 14:43:14;;;;;;;19.67;17.40;;;20.90;99.90;;;;;;4845348;29;20821;-80
2021/06/07 14:45:42;;;;;;;20.60;18.50;;;20.60;99.90;;;;;;4845442;29;20561;-80
2021/06/07 14:48:09;;;;;;;20.43;18.27;;;20.50;99.90;;;;;;4846208;29;20472;-78
2021/06/07 14:50:36;;;;;;;20.47;18.40;;;20.50;99.90;;;;;;4849720;29;20445;-79
2021/06/07 14:53:03;;;;;;;20.57;18.40;;;20.40;99.90;;;;;;4848514;29;20520;-79
2021/06/07 14:55:29;;;;;;;20.73;18.60;;;20.30;99.90;;;;;;4847104;29;20485;-81
2021/06/07 14:57:56;;;;;;;20.77;18.73;;;20.30;99.90;;;;;;4845484;29;20454;-81
2021/06/07 15:00:23;;;;;;;19.70;17.70;;;20.20;99.90;;;;;;4845219;29;20457;-80
2021/06/07 15:02:52;;;;;;;20.67;17.83;;;20.20;99.90;;;;;;4845645;29;20469;-80
2021/06/07 15:05:19;;;;;;;22.23;17.80;;;20.10;99.90;;;;;;4844541;29;20561;-80
2021/06/07 15:07:45;;;;;;;21.90;19.57;;;19.90;99.90;;;;;;4845290;29;20485;-81
2021/06/07 15:10:12;;;;;;;20.60;18.43;;;19.80;99.90;;;;;;4845419;29;20459;-81
2021/06/07 15:12:38;;;;;;;21.27;17.57;;;19.80;99.90;;;;;;4845148;29;20806;-80
2021/06/07 15:15:06;;;;;;;20.40;18.40;;;19.90;99.90;;;;;;4845085;29;20476;-80
2021/06/07 15:17:33;;;;;;;19.50;17.10;;;20.10;99.90;;;;;;4845136;29;20476;-80
2021/06/07 15:20:00;;;;;;;19.73;17.67;;;20.20;99.90;;;;;;4845162;29;20476;-81
2021/06/07 15:22:27;;;;;;;18.93;17.00;;;20.40;99.90;;;;;;4844992;29;20514;-81
2021/06/07 15:24:53;;;;;;;20.73;17.97;;;20.50;99.90;;;;;;4844990;29;20952;-80
2021/06/07 15:27:19;;;;;;;19.40;17.50;;;20.80;99.90;;;;;;4844974;29;20465;-81
2021/06/07 15:29:46;;;;;;;19.73;17.70;;;20.90;99.90;;;;;;4844873;29;20975;-81
2021/06/07 15:32:12;;;;;;;20.70;18.60;;;20.90;99.90;;;;;;4844736;29;20466;-80
2021/06/07 15:34:40;;;;;;;23.40;19.07;;;20.90;99.90;;;;;;4844787;29;20474;-81
2021/06/07 15:37:07;;;;;;;20.60;18.40;;;20.90;99.90;;;;;;4844788;29;20972;-79
2021/06/07 15:39:33;;;;;;;21.87;19.70;;;20.90;99.90;;;;;;4844684;29;20486;-80
2021/06/07 15:42:00;;;;;;;23.10;20.70;;;20.80;99.90;;;;;;4844444;29;20469;-81
2021/06/07 15:44:27;;;;;;;23.13;20.63;;;20.70;99.90;;;;;;4844272;29;20508;-80
2021/06/07 15:46:53;;;;;;;20.13;17.83;;;20.70;99.90;;;;;;4844263;29;20514;-80
2021/06/07 15:49:19;;;;;;;24.33;21.77;;;20.60;99.90;;;;;;4844642;29;20559;-79
2021/06/07 15:51:49;;;;;;;26.53;21.77;;;20.60;99.90;;;;;;4844423;29;20468;-82
2021/06/07 15:54:15;;;;;;;24.03;21.57;;;20.50;99.90;;;;;;4844702;29;20450;-80
2021/06/07 15:56:41;;;;;;;21.53;19.27;;;20.40;99.90;;;;;;4844510;29;21033;-80
2021/06/07 15:59:08;;;;;;;22.60;20.30;;;20.40;99.90;;;;;;4844206;29;20454;-81
2021/06/07 16:01:34;;;;;;;24.10;20.37;;;20.40;99.90;;;;;;4844330;29;20525;-81
2021/06/07 16:04:02;;;;;;;25.23;21.70;;;20.20;99.90;;;;;;4844083;29;20515;-80
2021/06/07 16:06:28;;;;;;;24.50;22.00;;;20.20;99.90;;;;;;4844662;29;20520;-81
2021/06/07 16:08:56;;;;;;;22.50;20.10;;;20.10;99.90;;;;;;4843986;29;20971;-80
2021/06/07 16:11:22;;;;;;;25.57;21.83;;;20.10;99.90;;;;;;4843984;29;20469;-79
2021/06/07 16:13:48;;;;;;;26.47;22.70;;;20.10;99.90;;;;;;4844091;29;20542;-81
2021/06/07 16:16:21;;;;;;;26.17;22.07;;;20.00;99.90;;;;;;4843790;29;20482;-80
2021/06/07 16:18:51;;;;;;;27.43;24.30;;;20.00;99.90;;;;;;4844049;29;20867;-80
2021/06/07 16:21:19;;;;;;;28.27;24.83;;;19.80;99.90;;;;;;4843952;29;20517;-80
2021/06/07 16:23:48;;;;;;;27.47;23.80;;;19.70;99.90;;;;;;4843682;29;20465;-81
2021/06/07 16:26:17;;;;;;;31.60;27.20;;;19.60;99.90;;;;;;4843671;29;20487;-79
2021/06/07 16:28:43;;;;;;;33.40;23.63;;;19.50;99.90;;;;;;4843679;29;20453;-80
2021/06/07 16:31:09;;;;;;;27.57;23.47;;;19.40;99.90;;;;;;4844071;29;21009;-79
2021/06/07 16:33:35;;;;;;;28.53;25.27;;;19.40;99.90;;;;;;4843557;29;20517;-80
2021/06/07 16:36:02;;;;;;;26.90;23.80;;;19.50;99.90;;;;;;4843498;29;20848;-80
2021/06/07 16:38:29;;;;;;;28.80;23.60;;;19.70;99.90;;;;;;4843595;29;20825;-81
2021/06/07 16:40:55;;;;;;;25.83;20.90;;;19.90;99.90;;;;;;4843683;29;20832;-79
2021/06/07 16:43:23;;;;;;;23.70;21.00;;;20.00;99.90;;;;;;4843646;29;20469;-79
2021/06/07 16:45:49;;;;;;;32.10;24.03;;;19.90;99.90;;;;;;4843515;29;20502;-80
2021/06/07 16:48:16;;;;;;;31.07;23.47;;;19.80;99.90;;;;;;4842820;29;20481;-80
2021/06/07 16:50:44;;;;;;;29.40;24.80;;;19.70;99.90;;;;;;4842909;29;20535;-80
2021/06/07 16:53:11;;;;;;;32.60;25.53;;;19.60;99.90;;;;;;4842408;29;20461;-79
2021/06/07 16:55:38;;;;;;;28.67;23.80;;;19.50;99.90;;;;;;4842570;29;20505;-83
2021/06/07 16:58:06;;;;;;;33.20;24.37;;;19.50;99.90;;;;;;4843781;29;20463;-82
2021/06/07 17:00:35;;;;;;;31.97;24.90;;;19.40;99.90;;;;;;4843019;29;20955;-81
2021/06/07 17:03:01;;;;;;;33.40;27.40;;;19.40;99.90;;;;;;4842417;29;20453;-79
2021/06/07 17:05:28;;;;;;;34.67;27.37;;;19.30;99.90;;;;;;4842116;29;20498;-81
2021/06/07 17:07:54;;;;;;;33.03;26.43;;;19.30;99.90;;;;;;4842399;29;20878;-78
2021/06/07 17:10:20;;;;;;;34.33;26.10;;;19.30;99.90;;;;;;4842344;29;20461;-78
2021/06/07 17:12:48;;;;;;;35.73;27.70;;;19.30;99.90;;;;;;4854146;29;20826;-77
2021/06/07 17:15:22;;;;;;;37.73;25.57;;;19.30;99.90;;;;;;4861905;29;20477;-78
2021/06/07 17:17:50;;;;;;;31.03;26.17;;;19.20;99.90;;;;;;4856608;29;20458;-78
2021/06/07 17:20:17;;;;;;;31.97;26.93;;;19.30;99.90;;;;;;4863868;29;20973;-77
2021/06/07 17:22:43;;;;;;;32.30;26.57;;;19.20;99.90;;;;;;4864881;29;20542;-78
2021/06/07 17:25:10;;;;;;;33.13;28.33;;;19.20;99.90;;;;;;4865233;29;20521;-78
2021/06/07 17:27:37;;;;;;;30.07;25.97;;;19.10;99.90;;;;;;4862280;29;20470;-79
2021/06/07 17:30:05;;;;;;;30.47;25.77;;;19.00;99.90;;;;;;4864123;29;20515;-78
2021/06/07 17:32:31;;;;;;;31.50;25.20;;;19.00;99.90;;;;;;4863724;29;20886;-78
2021/06/07 17:34:58;;;;;;;38.43;27.60;;;19.00;99.90;;;;;;4863823;29;20490;-77
2021/06/07 17:37:25;;;;;;;34.60;28.20;;;18.90;99.90;;;;;;4864540;29;20471;-78
2021/06/07 17:39:51;;;;;;;34.73;29.00;;;18.90;99.90;;;;;;4864291;29;20456;-78
2021/06/07 17:42:17;;;;;;;33.80;28.20;;;18.80;99.90;;;;;;4864185;29;20477;-77
2021/06/07 17:44:43;;;;;;;36.70;27.43;;;18.70;99.90;;;;;;4864263;29;20502;-78
2021/06/07 17:47:10;;;;;;;33.80;28.10;;;18.70;99.90;;;;;;4864137;29;20843;-78
2021/06/07 17:49:36;;;;;;;38.23;28.63;;;18.70;99.90;;;;;;4863874;29;20986;-78
2021/06/07 17:52:04;;;;;;;43.47;34.03;;;18.50;99.90;;;;;;4863793;29;20460;-78
2021/06/07 17:54:31;;;;;;;37.70;30.73;;;18.40;99.90;;;;;;4864206;29;20488;-78
2021/06/07 17:56:58;;;;;;;38.47;29.07;;;18.40;99.90;;;;;;4863855;29;20470;-77
2021/06/07 17:59:24;;;;;;;39.60;30.13;;;18.30;99.90;;;;;;4865179;29;20469;-78
2021/06/07 18:01:50;;;;;;;36.77;31.67;;;18.30;99.90;;;;;;4864305;29;20527;-78
2021/06/07 18:04:17;;;;;;;37.97;28.87;;;18.30;99.90;;;;;;4864683;29;20566;-79
2021/06/07 18:06:43;;;;;;;39.07;31.17;;;18.20;99.90;;;;;;4865492;29;20458;-78
2021/06/07 18:09:10;;;;;;;35.80;29.50;;;18.10;99.90;;;;;;4865826;29;20463;-78
2021/06/07 18:11:37;;;;;;;48.70;34.77;;;18.10;99.90;;;;;;4865679;29;20476;-79
2021/06/07 18:14:06;;;;;;;43.47;34.00;;;18.10;99.90;;;;;;4865844;29;20461;-78
2021/06/07 18:16:32;;;;;;;44.67;32.63;;;18.10;99.90;;;;;;4865548;29;20597;-79
2021/06/07 18:18:58;;;;;;;43.70;31.10;;;18.00;99.90;;;;;;4864781;29;20458;-79
2021/06/07 18:21:24;;;;;;;43.33;34.20;;;18.10;99.90;;;;;;4864745;29;20892;-79
2021/06/07 18:23:51;;;;;;;44.93;34.03;;;18.00;99.90;;;;;;4865034;29;20566;-80
2021/06/07 18:26:18;;;;;;;42.47;33.00;;;18.00;99.90;;;;;;4864317;29;20483;-79
2021/06/07 18:28:45;;;;;;;47.57;33.77;;;18.00;99.90;;;;;;4864523;29;20472;-80
2021/06/07 18:31:11;;;;;;;45.33;33.37;;;17.90;99.90;;;;;;4864316;29;20454;-80
2021/06/07 18:33:42;;;;;;;47.37;33.90;;;17.90;99.90;;;;;;4863829;29;20463;-78
2021/06/07 18:36:14;;;;;;;49.90;36.47;;;17.90;99.90;;;;;;4864045;29;20480;-77
2021/06/07 18:38:41;;;;;;;43.90;36.60;;;17.90;99.90;;;;;;4864496;29;21010;-81
2021/06/07 18:41:07;;;;;;;46.33;35.53;;;18.00;99.90;;;;;;4864489;29;20965;-80
2021/06/07 18:43:35;;;;;;;44.10;35.37;;;18.00;99.90;;;;;;4864248;29;20477;-79
2021/06/07 18:46:02;;;;;;;52.70;39.03;;;18.00;99.90;;;;;;4863659;29;21080;-78
2021/06/07 18:48:36;;;;;;;47.70;32.27;;;18.00;99.90;;;;;;4864207;29;20465;-80
2021/06/07 18:51:03;;;;;;;49.20;35.63;;;17.90;99.90;;;;;;4864580;29;20841;-79
2021/06/07 18:53:33;;;;;;;47.00;35.93;;;17.90;99.90;;;;;;4864274;29;20465;-80
2021/06/07 18:56:01;;;;;;;46.43;35.73;;;17.90;99.90;;;;;;4865078;29;20489;-80
2021/06/07 18:58:27;;;;;;;45.93;32.93;;;17.90;99.90;;;;;;4864354;29;20470;-79
2021/06/07 19:00:55;;;;;;;50.87;39.67;;;17.90;99.90;;;;;;4865024;29;20463;-80
2021/06/07 19:03:28;;;;;;;51.93;38.30;;;17.90;99.90;;;;;;4864649;29;20490;-79
2021/06/07 19:06:03;;;;;;;45.20;35.63;;;17.90;99.90;;;;;;4864042;29;20509;-78
2021/06/07 19:08:42;;;;;;;45.03;35.50;;;17.90;99.90;;;;;;4863957;29;20466;-79
2021/06/07 19:11:14;;;;;;;45.60;35.80;;;17.90;99.90;;;;;;4864019;29;20466;-78
2021/06/07 19:13:42;;;;;;;59.87;39.13;;;17.80;99.90;;;;;;4863702;29;20472;-79
2021/06/07 19:16:27;;;;;;;;;;;;;;;;;;;;;
2021/06/07 19:18:54;;;;;;;48.73;36.73;;;17.80;99.90;;;;;;4863728;29;20572;-80
2021/06/07 19:21:27;;;;;;;48.27;37.90;;;17.70;99.90;;;;;;4864303;29;20462;-78
2021/06/07 19:24:21;;;;;;;46.33;34.93;;;17.70;99.90;;;;;;4864420;29;20450;-78
2021/06/07 19:26:54;;;;;;;47.50;37.37;;;17.80;99.90;;;;;;4793012;30;20630;-78
2021/06/07 19:29:22;;;;;;;47.57;38.37;;;17.80;99.90;;;;;;4843588;29;20518;-80
2021/06/07 19:32:02;;;;;;;45.77;38.47;;;17.80;99.90;;;;;;4870167;29;20463;-80
2021/06/07 19:34:37;;;;;;;46.57;36.53;;;17.70;99.90;;;;;;4863908;29;20568;-80
2021/06/07 19:37:08;;;;;;;51.00;39.57;;;17.70;99.90;;;;;;4863511;29;20485;-81
2021/06/07 19:39:36;;;;;;;56.50;38.20;;;17.70;99.90;;;;;;4867360;29;20466;-80
2021/06/07 19:42:15;;;;;;;44.57;37.37;;;17.60;99.90;;;;;;4871143;29;20834;-81
2021/06/07 19:44:49;;;;;;;47.93;36.73;;;17.60;99.90;;;;;;4865101;29;20526;-79
2021/06/07 19:47:44;;;;;;;48.93;37.47;;;17.60;99.90;;;;;;4864806;29;20449;-80
2021/06/07 19:50:39;;;;;;;46.70;36.20;;;17.60;99.90;;;;;;4863454;29;20462;-80
2021/06/07 19:53:09;;;;;;;44.63;32.60;;;17.60;99.90;;;;;;4816202;29;20474;-79
2021/06/07 19:55:55;;;;;;;43.90;34.70;;;17.60;99.90;;;;;;4864474;29;20483;-80
2021/06/07 19:58:29;;;;;;;42.10;32.03;;;17.70;99.90;;;;;;4865610;29;20457;-80
2021/06/07 20:01:02;;;;;;;38.27;31.63;;;17.70;99.90;;;;;;4865279;29;20811;-82
2021/06/07 20:03:32;;;;;;;43.97;32.67;;;17.70;99.90;;;;;;4871442;29;20921;-82
2021/06/07 20:06:00;;;;;;;40.67;31.87;;;17.70;99.90;;;;;;4868132;29;20502;-82
2021/06/07 20:08:28;;;;;;;45.50;32.90;;;17.60;99.90;;;;;;4870498;29;20462;-83
2021/06/07 20:10:55;;;;;;;41.00;33.90;;;17.60;99.90;;;;;;4869730;29;20871;-83
2021/06/07 20:13:22;;;;;;;47.30;36.20;;;17.60;99.90;;;;;;4869197;29;20459;-82
2021/06/07 20:15:49;;;;;;;51.13;38.93;;;17.60;99.90;;;;;;4864159;29;20476;-85
2021/06/07 20:18:16;;;;;;;57.10;39.57;;;17.70;99.90;;;;;;4866803;29;20825;-82
2021/06/07 20:20:44;;;;;;;51.17;37.40;;;17.60;99.90;;;;;;4870081;29;20631;-83
2021/06/07 20:23:11;;;;;;;57.00;41.17;;;17.60;99.90;;;;;;4869537;29;20461;-81
2021/06/07 20:25:37;;;;;;;56.70;42.00;;;17.50;99.90;;;;;;4869612;29;20502;-82
2021/06/07 20:28:04;;;;;;;59.47;41.00;;;17.50;99.90;;;;;;4865798;29;20546;-81
2021/06/07 20:30:31;;;;;;;53.20;40.07;;;17.50;99.90;;;;;;4865123;29;20450;-83
2021/06/07 20:32:57;;;;;;;63.60;43.07;;;17.50;99.90;;;;;;4868967;29;20450;-83
2021/06/07 20:35:24;;;;;;;51.17;38.97;;;17.50;99.90;;;;;;4869364;29;20988;-81
2021/06/07 20:37:51;;;;;;;57.23;42.47;;;17.50;99.90;;;;;;4875933;29;20832;-82
2021/06/07 20:40:20;;;;;;;56.90;42.03;;;17.50;99.90;;;;;;4871191;29;20521;-81
2021/06/07 20:42:47;;;;;;;55.10;41.67;;;17.50;99.90;;;;;;4870666;29;20460;-83
2021/06/07 20:45:17;;;;;;;60.80;42.70;;;17.50;99.90;;;;;;4874758;29;20497;-82
2021/06/07 20:47:44;;;;;;;62.67;45.53;;;17.40;99.90;;;;;;4869418;29;20495;-82
2021/06/07 20:50:12;;;;;;;59.53;45.53;;;17.40;99.90;;;;;;4874104;29;20462;-82
2021/06/07 20:52:39;;;;;;;56.77;42.50;;;17.40;99.90;;;;;;4875979;29;20533;-81
2021/06/07 20:55:08;;;;;;;54.43;39.93;;;17.50;99.90;;;;;;4882646;29;20475;-82
2021/06/07 20:57:34;;;;;;;60.43;45.60;;;17.60;99.90;;;;;;4881638;29;20501;-82
2021/06/07 21:00:01;;;;;;;60.53;44.53;;;17.50;99.90;;;;;;4881898;29;20456;-81
2021/06/07 21:02:27;;;;;;;63.00;45.67;;;17.60;99.90;;;;;;4881420;29;20457;-82
2021/06/07 21:04:54;;;;;;;66.47;48.70;;;17.60;99.90;;;;;;4882157;29;20493;-82
2021/06/07 21:07:20;;;;;;;57.53;45.10;;;17.50;99.90;;;;;;4882610;29;20464;-82
2021/06/07 21:09:46;;;;;;;65.10;47.93;;;17.60;99.90;;;;;;4881948;29;20958;-80
2021/06/07 21:12:14;;;;;;;55.40;44.00;;;17.60;99.90;;;;;;4881769;29;20462;-83
2021/06/07 21:14:40;;;;;;;58.43;46.17;;;17.60;99.90;;;;;;4881738;29;20854;-83
2021/06/07 21:17:07;;;;;;;57.90;45.40;;;17.60;99.90;;;;;;4882057;29;20469;-80
2021/06/07 21:19:34;;;;;;;62.57;48.77;;;17.60;99.90;;;;;;4882711;29;20460;-82
2021/06/07 21:22:01;;;;;;;58.27;45.03;;;17.60;99.90;;;;;;4882513;29;20874;-82
2021/06/07 21:24:28;;;;;;;51.60;42.00;;;17.70;99.90;;;;;;4882403;29;20496;-84
2021/06/07 21:26:55;;;;;;;56.50;43.60;;;17.60;99.90;;;;;;4881925;29;20447;-81
2021/06/07 21:29:23;;;;;;;59.90;44.60;;;17.60;99.90;;;;;;4881031;29;20483;-82
2021/06/07 21:31:49;;;;;;;61.13;45.60;;;17.60;99.90;;;;;;4881994;29;20456;-83
2021/06/07 21:34:15;;;;;;;64.40;45.90;;;17.60;99.90;;;;;;4882270;29;20465;-80
2021/06/07 21:36:42;;;;;;;64.13;43.27;;;17.50;99.90;;;;;;4882147;29;20494;-81
2021/06/07 21:39:08;;;;;;;62.10;46.40;;;17.50;99.90;;;;;;4882738;29;20464;-83
2021/06/07 21:41:34;;;;;;;58.23;45.90;;;17.50;99.90;;;;;;4882779;29;20458;-81
2021/06/07 21:44:02;;;;;;;58.80;45.10;;;17.50;99.90;;;;;;4882360;29;20460;-83
2021/06/07 21:46:29;;;;;;;62.73;46.37;;;17.50;99.90;;;;;;4882992;29;20520;-83
2021/06/07 21:48:56;;;;;;;53.90;44.10;;;17.50;99.90;;;;;;4882498;29;20464;-81
2021/06/07 21:51:22;;;;;;;58.27;44.70;;;17.60;99.90;;;;;;4883297;29;20461;-82
2021/06/07 21:53:48;;;;;;;56.27;45.77;;;17.60;99.90;;;;;;4882859;29;20466;-84
2021/06/07 21:56:14;;;;;;;51.97;42.47;;;17.60;99.90;;;;;;4882091;29;20474;-84